sensor_id;sensor_type;location;lat;lon;timestamp;P1;durP1;ratioP1;P2;durP2;ratioP2
32152;SDS011;18656;50.580;11.392;2022-12-24T00:00:16;10.93;;;1.90;;
32152;SDS011;18656;50.580;11.392;2022-12-24T00:02:43;15.25;;;2.53;;
32152;SDS011;18656;50.580;11.392;2022-12-24T00:05:11;5.90;;;1.70;;
32152;SDS011;18656;50.580;11.392;2022-12-24T00:07:38;7.70;;;1.85;;
32152;SDS011;18656;50.580;11.392;2022-12-24T00:10:05;8.30;;;1.98;;
32152;SDS011;18656;50.580;11.392;2022-12-24T00:12:33;11.73;;;2.97;;
32152;SDS011;18656;50.580;11.392;2022-12-24T00:15:01;6.63;;;2.20;;
32152;SDS011;18656;50.580;11.392;2022-12-24T00:17:29;11.35;;;2.05;;
32152;SDS011;18656;50.580;11.392;2022-12-24T00:19:56;10.38;;;2.13;;
32152;SDS011;18656;50.580;11.392;2022-12-24T00:22:24;9.13;;;1.80;;
32152;SDS011;18656;50.580;11.392;2022-12-24T00:24:51;8.70;;;2.22;;
32152;SDS011;18656;50.580;11.392;2022-12-24T00:27:18;8.60;;;2.20;;
32152;SDS011;18656;50.580;11.392;2022-12-24T00:29:46;16.42;;;2.35;;
32152;SDS011;18656;50.580;11.392;2022-12-24T00:32:13;6.03;;;2.78;;
32152;SDS011;18656;50.580;11.392;2022-12-24T00:34:40;11.15;;;2.55;;
32152;SDS011;18656;50.580;11.392;2022-12-24T00:37:08;9.50;;;3.20;;
32152;SDS011;18656;50.580;11.392;2022-12-24T00:39:35;13.07;;;2.53;;
32152;SDS011;18656;50.580;11.392;2022-12-24T00:42:04;13.38;;;2.45;;
32152;SDS011;18656;50.580;11.392;2022-12-24T00:44:31;7.28;;;1.80;;
32152;SDS011;18656;50.580;11.392;2022-12-24T00:46:59;6.25;;;1.67;;
32152;SDS011;18656;50.580;11.392;2022-12-24T00:49:33;10.60;;;2.00;;
32152;SDS011;18656;50.580;11.392;2022-12-24T00:52:00;4.30;;;1.65;;
32152;SDS011;18656;50.580;11.392;2022-12-24T00:54:28;4.90;;;1.30;;
32152;SDS011;18656;50.580;11.392;2022-12-24T00:56:55;3.63;;;1.05;;
32152;SDS011;18656;50.580;11.392;2022-12-24T00:59:23;6.93;;;1.38;;
32152;SDS011;18656;50.580;11.392;2022-12-24T01:01:50;7.20;;;1.90;;
32152;SDS011;18656;50.580;11.392;2022-12-24T01:04:18;7.13;;;1.75;;
32152;SDS011;18656;50.580;11.392;2022-12-24T01:07:04;8.07;;;1.40;;
32152;SDS011;18656;50.580;11.392;2022-12-24T01:09:31;8.10;;;2.13;;
32152;SDS011;18656;50.580;11.392;2022-12-24T01:11:59;17.30;;;1.98;;
32152;SDS011;18656;50.580;11.392;2022-12-24T01:14:26;8.23;;;1.92;;
32152;SDS011;18656;50.580;11.392;2022-12-24T01:16:53;9.60;;;2.00;;
32152;SDS011;18656;50.580;11.392;2022-12-24T01:19:21;5.03;;;1.20;;
32152;SDS011;18656;50.580;11.392;2022-12-24T01:21:48;8.07;;;1.88;;
32152;SDS011;18656;50.580;11.392;2022-12-24T01:24:15;5.20;;;1.40;;
32152;SDS011;18656;50.580;11.392;2022-12-24T01:26:42;7.68;;;1.23;;
32152;SDS011;18656;50.580;11.392;2022-12-24T01:29:10;7.18;;;1.52;;
32152;SDS011;18656;50.580;11.392;2022-12-24T01:31:37;6.10;;;1.27;;
32152;SDS011;18656;50.580;11.392;2022-12-24T01:34:04;8.70;;;1.70;;
32152;SDS011;18656;50.580;11.392;2022-12-24T01:36:32;13.32;;;1.67;;
32152;SDS011;18656;50.580;11.392;2022-12-24T01:38:59;8.95;;;1.85;;
32152;SDS011;18656;50.580;11.392;2022-12-24T01:41:26;13.57;;;1.85;;
32152;SDS011;18656;50.580;11.392;2022-12-24T01:44:15;8.98;;;1.90;;
32152;SDS011;18656;50.580;11.392;2022-12-24T01:46:42;12.02;;;2.45;;
32152;SDS011;18656;50.580;11.392;2022-12-24T01:49:10;9.30;;;1.70;;
32152;SDS011;18656;50.580;11.392;2022-12-24T01:51:43;7.57;;;1.40;;
32152;SDS011;18656;50.580;11.392;2022-12-24T01:54:17;10.45;;;1.95;;
32152;SDS011;18656;50.580;11.392;2022-12-24T01:56:47;8.00;;;1.83;;
32152;SDS011;18656;50.580;11.392;2022-12-24T01:59:15;6.22;;;1.55;;
32152;SDS011;18656;50.580;11.392;2022-12-24T02:01:45;10.27;;;1.95;;
32152;SDS011;18656;50.580;11.392;2022-12-24T02:04:22;10.20;;;2.20;;
32152;SDS011;18656;50.580;11.392;2022-12-24T02:06:51;5.65;;;1.70;;
32152;SDS011;18656;50.580;11.392;2022-12-24T02:09:18;7.88;;;1.80;;
32152;SDS011;18656;50.580;11.392;2022-12-24T02:11:45;7.63;;;1.58;;
32152;SDS011;18656;50.580;11.392;2022-12-24T02:14:13;7.15;;;1.80;;
32152;SDS011;18656;50.580;11.392;2022-12-24T02:16:59;9.23;;;1.52;;
32152;SDS011;18656;50.580;11.392;2022-12-24T02:19:34;10.95;;;2.00;;
32152;SDS011;18656;50.580;11.392;2022-12-24T02:24:51;10.98;;;2.35;;
32152;SDS011;18656;50.580;11.392;2022-12-24T02:27:27;6.60;;;1.55;;
32152;SDS011;18656;50.580;11.392;2022-12-24T02:30:02;8.45;;;1.75;;
32152;SDS011;18656;50.580;11.392;2022-12-24T02:32:35;9.32;;;1.58;;
32152;SDS011;18656;50.580;11.392;2022-12-24T02:37:43;4.65;;;1.48;;
32152;SDS011;18656;50.580;11.392;2022-12-24T02:40:22;10.75;;;1.65;;
32152;SDS011;18656;50.580;11.392;2022-12-24T02:42:52;7.55;;;1.42;;
32152;SDS011;18656;50.580;11.392;2022-12-24T02:45:21;6.13;;;1.65;;
32152;SDS011;18656;50.580;11.392;2022-12-24T02:47:49;9.02;;;1.92;;
32152;SDS011;18656;50.580;11.392;2022-12-24T02:50:17;6.68;;;1.13;;
32152;SDS011;18656;50.580;11.392;2022-12-24T02:52:45;9.88;;;1.60;;
32152;SDS011;18656;50.580;11.392;2022-12-24T02:55:23;6.03;;;1.52;;
32152;SDS011;18656;50.580;11.392;2022-12-24T02:58:00;7.63;;;1.25;;
32152;SDS011;18656;50.580;11.392;2022-12-24T03:03:22;5.80;;;1.17;;
32152;SDS011;18656;50.580;11.392;2022-12-24T03:06:15;12.13;;;2.00;;
32152;SDS011;18656;50.580;11.392;2022-12-24T03:09:04;3.33;;;1.38;;
32152;SDS011;18656;50.580;11.392;2022-12-24T03:11:34;8.63;;;1.85;;
32152;SDS011;18656;50.580;11.392;2022-12-24T03:14:02;11.65;;;2.08;;
32152;SDS011;18656;50.580;11.392;2022-12-24T03:16:29;9.90;;;1.90;;
32152;SDS011;18656;50.580;11.392;2022-12-24T03:18:57;17.90;;;2.08;;
32152;SDS011;18656;50.580;11.392;2022-12-24T03:21:27;14.00;;;1.70;;
32152;SDS011;18656;50.580;11.392;2022-12-24T03:23:55;11.00;;;2.05;;
32152;SDS011;18656;50.580;11.392;2022-12-24T03:26:22;15.23;;;2.72;;
32152;SDS011;18656;50.580;11.392;2022-12-24T03:28:50;12.02;;;1.67;;
32152;SDS011;18656;50.580;11.392;2022-12-24T03:31:18;9.18;;;1.70;;
32152;SDS011;18656;50.580;11.392;2022-12-24T03:33:46;7.10;;;1.50;;
32152;SDS011;18656;50.580;11.392;2022-12-24T03:36:13;7.32;;;1.27;;
32152;SDS011;18656;50.580;11.392;2022-12-24T03:38:40;11.43;;;2.20;;
32152;SDS011;18656;50.580;11.392;2022-12-24T03:41:08;8.95;;;1.70;;
32152;SDS011;18656;50.580;11.392;2022-12-24T03:43:35;9.23;;;1.80;;
32152;SDS011;18656;50.580;11.392;2022-12-24T03:46:04;12.13;;;1.52;;
32152;SDS011;18656;50.580;11.392;2022-12-24T03:48:32;16.70;;;2.42;;
32152;SDS011;18656;50.580;11.392;2022-12-24T03:51:00;15.05;;;2.35;;
32152;SDS011;18656;50.580;11.392;2022-12-24T03:53:28;11.27;;;1.58;;
32152;SDS011;18656;50.580;11.392;2022-12-24T03:55:55;12.93;;;2.25;;
32152;SDS011;18656;50.580;11.392;2022-12-24T03:58:22;6.00;;;1.55;;
32152;SDS011;18656;50.580;11.392;2022-12-24T04:00:51;12.98;;;2.05;;
32152;SDS011;18656;50.580;11.392;2022-12-24T04:03:18;11.10;;;1.73;;
32152;SDS011;18656;50.580;11.392;2022-12-24T04:05:46;6.97;;;1.50;;
32152;SDS011;18656;50.580;11.392;2022-12-24T04:08:13;12.10;;;2.42;;
32152;SDS011;18656;50.580;11.392;2022-12-24T04:10:40;8.85;;;1.60;;
32152;SDS011;18656;50.580;11.392;2022-12-24T04:13:07;9.90;;;1.83;;
32152;SDS011;18656;50.580;11.392;2022-12-24T04:15:35;15.98;;;1.85;;
32152;SDS011;18656;50.580;11.392;2022-12-24T04:18:02;11.27;;;1.95;;
32152;SDS011;18656;50.580;11.392;2022-12-24T04:20:29;10.50;;;2.30;;
32152;SDS011;18656;50.580;11.392;2022-12-24T04:22:56;9.75;;;1.95;;
32152;SDS011;18656;50.580;11.392;2022-12-24T04:25:24;9.48;;;2.15;;
32152;SDS011;18656;50.580;11.392;2022-12-24T04:27:51;15.55;;;2.65;;
32152;SDS011;18656;50.580;11.392;2022-12-24T04:30:18;16.67;;;2.17;;
32152;SDS011;18656;50.580;11.392;2022-12-24T04:32:45;8.32;;;1.98;;
32152;SDS011;18656;50.580;11.392;2022-12-24T04:35:12;8.98;;;1.88;;
32152;SDS011;18656;50.580;11.392;2022-12-24T04:37:40;10.98;;;1.85;;
32152;SDS011;18656;50.580;11.392;2022-12-24T04:40:07;16.77;;;2.42;;
32152;SDS011;18656;50.580;11.392;2022-12-24T04:42:34;11.65;;;1.67;;
32152;SDS011;18656;50.580;11.392;2022-12-24T04:45:01;8.43;;;1.88;;
32152;SDS011;18656;50.580;11.392;2022-12-24T04:47:29;13.75;;;1.80;;
32152;SDS011;18656;50.580;11.392;2022-12-24T04:49:56;11.95;;;2.17;;
32152;SDS011;18656;50.580;11.392;2022-12-24T04:52:24;7.82;;;1.77;;
32152;SDS011;18656;50.580;11.392;2022-12-24T04:54:51;12.70;;;1.88;;
32152;SDS011;18656;50.580;11.392;2022-12-24T04:57:18;13.10;;;1.92;;
32152;SDS011;18656;50.580;11.392;2022-12-24T04:59:46;8.10;;;2.55;;
32152;SDS011;18656;50.580;11.392;2022-12-24T05:02:13;10.57;;;1.75;;
32152;SDS011;18656;50.580;11.392;2022-12-24T05:04:40;11.35;;;2.03;;
32152;SDS011;18656;50.580;11.392;2022-12-24T05:07:08;11.75;;;2.13;;
32152;SDS011;18656;50.580;11.392;2022-12-24T05:09:35;10.48;;;2.17;;
32152;SDS011;18656;50.580;11.392;2022-12-24T05:12:02;10.23;;;1.77;;
32152;SDS011;18656;50.580;11.392;2022-12-24T05:14:30;10.60;;;2.03;;
32152;SDS011;18656;50.580;11.392;2022-12-24T05:16:57;9.75;;;2.00;;
32152;SDS011;18656;50.580;11.392;2022-12-24T05:19:25;12.98;;;2.35;;
32152;SDS011;18656;50.580;11.392;2022-12-24T05:21:52;9.55;;;3.03;;
32152;SDS011;18656;50.580;11.392;2022-12-24T05:24:38;11.95;;;6.13;;
32152;SDS011;18656;50.580;11.392;2022-12-24T05:27:24;14.43;;;6.72;;
32152;SDS011;18656;50.580;11.392;2022-12-24T05:29:51;17.38;;;5.95;;
32152;SDS011;18656;50.580;11.392;2022-12-24T05:32:18;9.88;;;4.75;;
32152;SDS011;18656;50.580;11.392;2022-12-24T05:34:45;12.48;;;6.35;;
32152;SDS011;18656;50.580;11.392;2022-12-24T05:37:12;18.25;;;5.60;;
32152;SDS011;18656;50.580;11.392;2022-12-24T05:39:40;12.65;;;4.28;;
32152;SDS011;18656;50.580;11.392;2022-12-24T05:42:07;13.52;;;5.63;;
32152;SDS011;18656;50.580;11.392;2022-12-24T05:44:34;16.23;;;5.35;;
32152;SDS011;18656;50.580;11.392;2022-12-24T05:47:02;12.55;;;4.53;;
32152;SDS011;18656;50.580;11.392;2022-12-24T05:49:29;10.05;;;5.30;;
32152;SDS011;18656;50.580;11.392;2022-12-24T05:51:57;13.82;;;4.00;;
32152;SDS011;18656;50.580;11.392;2022-12-24T05:54:24;9.48;;;3.38;;
32152;SDS011;18656;50.580;11.392;2022-12-24T05:56:51;8.05;;;3.35;;
32152;SDS011;18656;50.580;11.392;2022-12-24T05:59:18;8.40;;;2.85;;
32152;SDS011;18656;50.580;11.392;2022-12-24T06:01:45;18.63;;;4.70;;
32152;SDS011;18656;50.580;11.392;2022-12-24T06:04:13;18.95;;;3.90;;
32152;SDS011;18656;50.580;11.392;2022-12-24T06:06:41;9.32;;;3.67;;
32152;SDS011;18656;50.580;11.392;2022-12-24T06:09:08;13.95;;;3.97;;
32152;SDS011;18656;50.580;11.392;2022-12-24T06:11:35;16.52;;;4.28;;
32152;SDS011;18656;50.580;11.392;2022-12-24T06:14:02;21.80;;;3.70;;
32152;SDS011;18656;50.580;11.392;2022-12-24T06:16:30;16.10;;;3.65;;
32152;SDS011;18656;50.580;11.392;2022-12-24T06:18:57;8.85;;;3.83;;
32152;SDS011;18656;50.580;11.392;2022-12-24T06:21:24;15.82;;;3.70;;
32152;SDS011;18656;50.580;11.392;2022-12-24T06:23:52;9.38;;;3.60;;
32152;SDS011;18656;50.580;11.392;2022-12-24T06:26:20;13.95;;;3.88;;
32152;SDS011;18656;50.580;11.392;2022-12-24T06:28:48;14.25;;;3.75;;
32152;SDS011;18656;50.580;11.392;2022-12-24T06:31:17;18.25;;;4.35;;
32152;SDS011;18656;50.580;11.392;2022-12-24T06:33:44;18.38;;;3.90;;
32152;SDS011;18656;50.580;11.392;2022-12-24T06:36:15;16.10;;;3.83;;
32152;SDS011;18656;50.580;11.392;2022-12-24T06:38:44;11.77;;;3.50;;
32152;SDS011;18656;50.580;11.392;2022-12-24T06:41:11;16.92;;;4.72;;
32152;SDS011;18656;50.580;11.392;2022-12-24T06:43:39;12.23;;;4.03;;
32152;SDS011;18656;50.580;11.392;2022-12-24T06:46:09;16.83;;;5.13;;
32152;SDS011;18656;50.580;11.392;2022-12-24T06:48:36;22.85;;;10.35;;
32152;SDS011;18656;50.580;11.392;2022-12-24T06:51:03;22.50;;;10.95;;
32152;SDS011;18656;50.580;11.392;2022-12-24T06:53:31;48.50;;;19.83;;
32152;SDS011;18656;50.580;11.392;2022-12-24T06:58:28;57.17;;;24.42;;
32152;SDS011;18656;50.580;11.392;2022-12-24T07:00:56;57.65;;;20.23;;
32152;SDS011;18656;50.580;11.392;2022-12-24T07:03:23;23.05;;;9.32;;
32152;SDS011;18656;50.580;11.392;2022-12-24T07:05:50;12.40;;;6.70;;
32152;SDS011;18656;50.580;11.392;2022-12-24T07:08:17;13.25;;;6.88;;
32152;SDS011;18656;50.580;11.392;2022-12-24T07:10:45;18.30;;;5.05;;
32152;SDS011;18656;50.580;11.392;2022-12-24T07:13:19;17.92;;;7.32;;
32152;SDS011;18656;50.580;11.392;2022-12-24T07:15:46;23.13;;;13.85;;
32152;SDS011;18656;50.580;11.392;2022-12-24T07:18:22;39.95;;;24.17;;
32152;SDS011;18656;50.580;11.392;2022-12-24T07:20:49;38.90;;;21.17;;
32152;SDS011;18656;50.580;11.392;2022-12-24T07:23:16;27.38;;;13.65;;
32152;SDS011;18656;50.580;11.392;2022-12-24T07:25:44;39.78;;;24.10;;
32152;SDS011;18656;50.580;11.392;2022-12-24T07:28:11;27.85;;;18.95;;
32152;SDS011;18656;50.580;11.392;2022-12-24T07:30:38;27.27;;;17.48;;
32152;SDS011;18656;50.580;11.392;2022-12-24T07:33:05;26.92;;;16.02;;
32152;SDS011;18656;50.580;11.392;2022-12-24T07:35:33;16.40;;;10.15;;
32152;SDS011;18656;50.580;11.392;2022-12-24T07:38:02;10.38;;;7.20;;
32152;SDS011;18656;50.580;11.392;2022-12-24T07:40:30;20.20;;;6.90;;
32152;SDS011;18656;50.580;11.392;2022-12-24T07:42:59;19.55;;;8.55;;
32152;SDS011;18656;50.580;11.392;2022-12-24T07:45:26;20.83;;;11.82;;
32152;SDS011;18656;50.580;11.392;2022-12-24T07:47:54;16.98;;;9.95;;
32152;SDS011;18656;50.580;11.392;2022-12-24T07:50:21;23.05;;;12.40;;
32152;SDS011;18656;50.580;11.392;2022-12-24T07:52:48;21.33;;;11.93;;
32152;SDS011;18656;50.580;11.392;2022-12-24T07:55:15;27.30;;;13.43;;
32152;SDS011;18656;50.580;11.392;2022-12-24T07:57:42;20.63;;;9.48;;
32152;SDS011;18656;50.580;11.392;2022-12-24T08:00:10;24.30;;;12.32;;
32152;SDS011;18656;50.580;11.392;2022-12-24T08:02:37;22.17;;;10.50;;
32152;SDS011;18656;50.580;11.392;2022-12-24T08:05:05;28.13;;;13.10;;
32152;SDS011;18656;50.580;11.392;2022-12-24T08:07:32;18.15;;;10.15;;
32152;SDS011;18656;50.580;11.392;2022-12-24T08:09:59;31.92;;;17.70;;
32152;SDS011;18656;50.580;11.392;2022-12-24T08:12:26;54.97;;;24.90;;
32152;SDS011;18656;50.580;11.392;2022-12-24T08:14:54;65.65;;;30.65;;
32152;SDS011;18656;50.580;11.392;2022-12-24T08:17:21;46.05;;;23.05;;
32152;SDS011;18656;50.580;11.392;2022-12-24T08:19:56;68.00;;;32.45;;
32152;SDS011;18656;50.580;11.392;2022-12-24T08:22:24;55.65;;;28.40;;
32152;SDS011;18656;50.580;11.392;2022-12-24T08:24:51;64.40;;;28.90;;
32152;SDS011;18656;50.580;11.392;2022-12-24T08:27:18;47.65;;;24.05;;
32152;SDS011;18656;50.580;11.392;2022-12-24T08:29:45;141.93;;;57.95;;
32152;SDS011;18656;50.580;11.392;2022-12-24T08:32:12;111.40;;;56.50;;
32152;SDS011;18656;50.580;11.392;2022-12-24T08:34:39;66.90;;;45.30;;
32152;SDS011;18656;50.580;11.392;2022-12-24T08:37:07;70.18;;;49.38;;
32152;SDS011;18656;50.580;11.392;2022-12-24T08:39:34;61.55;;;38.92;;
32152;SDS011;18656;50.580;11.392;2022-12-24T08:42:01;50.55;;;32.15;;
32152;SDS011;18656;50.580;11.392;2022-12-24T08:44:28;46.63;;;29.80;;
32152;SDS011;18656;50.580;11.392;2022-12-24T08:46:57;48.90;;;31.27;;
32152;SDS011;18656;50.580;11.392;2022-12-24T08:49:24;60.00;;;34.63;;
32152;SDS011;18656;50.580;11.392;2022-12-24T08:51:52;70.28;;;43.42;;
32152;SDS011;18656;50.580;11.392;2022-12-24T08:54:19;60.30;;;39.05;;
32152;SDS011;18656;50.580;11.392;2022-12-24T08:56:48;53.28;;;33.63;;
32152;SDS011;18656;50.580;11.392;2022-12-24T08:59:16;45.63;;;28.25;;
32152;SDS011;18656;50.580;11.392;2022-12-24T09:01:43;29.23;;;19.33;;
32152;SDS011;18656;50.580;11.392;2022-12-24T09:04:10;22.27;;;14.23;;
32152;SDS011;18656;50.580;11.392;2022-12-24T09:06:38;17.35;;;12.18;;
32152;SDS011;18656;50.580;11.392;2022-12-24T09:09:05;23.48;;;12.23;;
32152;SDS011;18656;50.580;11.392;2022-12-24T09:11:33;19.38;;;8.18;;
32152;SDS011;18656;50.580;11.392;2022-12-24T09:14:00;26.48;;;11.98;;
32152;SDS011;18656;50.580;11.392;2022-12-24T09:16:28;20.00;;;9.32;;
32152;SDS011;18656;50.580;11.392;2022-12-24T09:18:55;15.77;;;6.20;;
32152;SDS011;18656;50.580;11.392;2022-12-24T09:21:23;13.43;;;5.82;;
32152;SDS011;18656;50.580;11.392;2022-12-24T09:23:52;19.80;;;9.18;;
32152;SDS011;18656;50.580;11.392;2022-12-24T09:26:23;16.38;;;9.68;;
32152;SDS011;18656;50.580;11.392;2022-12-24T09:28:51;16.50;;;9.32;;
32152;SDS011;18656;50.580;11.392;2022-12-24T09:31:18;19.60;;;8.45;;
32152;SDS011;18656;50.580;11.392;2022-12-24T09:33:48;35.58;;;25.85;;
32152;SDS011;18656;50.580;11.392;2022-12-24T09:36:15;23.35;;;15.25;;
32152;SDS011;18656;50.580;11.392;2022-12-24T09:38:43;20.20;;;11.40;;
32152;SDS011;18656;50.580;11.392;2022-12-24T09:41:35;28.52;;;18.27;;
32152;SDS011;18656;50.580;11.392;2022-12-24T09:44:02;29.98;;;18.20;;
32152;SDS011;18656;50.580;11.392;2022-12-24T09:46:33;22.90;;;15.13;;
32152;SDS011;18656;50.580;11.392;2022-12-24T09:49:03;14.57;;;8.10;;
32152;SDS011;18656;50.580;11.392;2022-12-24T09:54:08;9.23;;;3.72;;
32152;SDS011;18656;50.580;11.392;2022-12-24T09:56:39;2.20;;;0.98;;
32152;SDS011;18656;50.580;11.392;2022-12-24T09:59:10;1.95;;;0.60;;
32152;SDS011;18656;50.580;11.392;2022-12-24T10:01:39;5.55;;;1.60;;
32152;SDS011;18656;50.580;11.392;2022-12-24T10:04:13;0.70;;;0.57;;
32152;SDS011;18656;50.580;11.392;2022-12-24T10:06:48;2.42;;;0.70;;
32152;SDS011;18656;50.580;11.392;2022-12-24T10:12:07;3.63;;;0.82;;
32152;SDS011;18656;50.580;11.392;2022-12-24T10:17:26;1.77;;;1.35;;
32152;SDS011;18656;50.580;11.392;2022-12-24T10:22:35;2.75;;;1.00;;
32152;SDS011;18656;50.580;11.392;2022-12-24T10:25:16;2.83;;;0.98;;
32152;SDS011;18656;50.580;11.392;2022-12-24T10:27:46;3.50;;;1.08;;
32152;SDS011;18656;50.580;11.392;2022-12-24T10:30:17;3.38;;;1.55;;
32152;SDS011;18656;50.580;11.392;2022-12-24T10:32:49;3.80;;;1.30;;
32152;SDS011;18656;50.580;11.392;2022-12-24T10:35:31;3.15;;;1.10;;
32152;SDS011;18656;50.580;11.392;2022-12-24T10:38:00;4.88;;;1.65;;
32152;SDS011;18656;50.580;11.392;2022-12-24T10:40:31;3.03;;;1.58;;
32152;SDS011;18656;50.580;11.392;2022-12-24T10:43:00;8.63;;;1.50;;
32152;SDS011;18656;50.580;11.392;2022-12-24T10:45:30;5.60;;;1.42;;
32152;SDS011;18656;50.580;11.392;2022-12-24T10:48:03;4.18;;;1.45;;
32152;SDS011;18656;50.580;11.392;2022-12-24T10:50:40;4.07;;;1.30;;
32152;SDS011;18656;50.580;11.392;2022-12-24T10:53:13;3.80;;;1.20;;
32152;SDS011;18656;50.580;11.392;2022-12-24T10:55:43;4.63;;;1.27;;
32152;SDS011;18656;50.580;11.392;2022-12-24T10:58:14;7.53;;;1.48;;
32152;SDS011;18656;50.580;11.392;2022-12-24T11:00:47;7.55;;;2.33;;
32152;SDS011;18656;50.580;11.392;2022-12-24T11:03:29;8.73;;;3.33;;
32152;SDS011;18656;50.580;11.392;2022-12-24T11:06:02;8.10;;;1.75;;
32152;SDS011;18656;50.580;11.392;2022-12-24T11:08:29;5.75;;;1.63;;
32152;SDS011;18656;50.580;11.392;2022-12-24T11:10:58;8.35;;;2.20;;
32152;SDS011;18656;50.580;11.392;2022-12-24T11:16:15;8.77;;;2.17;;
32152;SDS011;18656;50.580;11.392;2022-12-24T11:18:54;8.02;;;2.75;;
32152;SDS011;18656;50.580;11.392;2022-12-24T11:21:29;3.88;;;1.60;;
32152;SDS011;18656;50.580;11.392;2022-12-24T11:23:58;3.65;;;1.90;;
32152;SDS011;18656;50.580;11.392;2022-12-24T11:26:27;7.60;;;1.52;;
32152;SDS011;18656;50.580;11.392;2022-12-24T11:31:34;4.70;;;1.63;;
32152;SDS011;18656;50.580;11.392;2022-12-24T11:34:25;7.68;;;2.53;;
32152;SDS011;18656;50.580;11.392;2022-12-24T11:36:50;7.28;;;2.30;;
32152;SDS011;18656;50.580;11.392;2022-12-24T11:39:18;7.07;;;2.20;;
32152;SDS011;18656;50.580;11.392;2022-12-24T11:41:46;9.27;;;2.35;;
32152;SDS011;18656;50.580;11.392;2022-12-24T11:44:25;7.32;;;2.25;;
32152;SDS011;18656;50.580;11.392;2022-12-24T11:46:53;8.80;;;2.33;;
32152;SDS011;18656;50.580;11.392;2022-12-24T11:49:30;6.63;;;2.38;;
32152;SDS011;18656;50.580;11.392;2022-12-24T11:57:23;6.35;;;2.78;;
32152;SDS011;18656;50.580;11.392;2022-12-24T11:59:51;5.50;;;1.75;;
32152;SDS011;18656;50.580;11.392;2022-12-24T12:02:22;5.97;;;1.80;;
32152;SDS011;18656;50.580;11.392;2022-12-24T12:04:53;8.15;;;1.30;;
32152;SDS011;18656;50.580;11.392;2022-12-24T12:07:33;3.78;;;1.00;;
32152;SDS011;18656;50.580;11.392;2022-12-24T12:10:05;4.60;;;1.08;;
32152;SDS011;18656;50.580;11.392;2022-12-24T12:12:35;3.33;;;1.00;;
32152;SDS011;18656;50.580;11.392;2022-12-24T12:15:10;5.18;;;1.52;;
32152;SDS011;18656;50.580;11.392;2022-12-24T12:20:09;5.43;;;1.35;;
32152;SDS011;18656;50.580;11.392;2022-12-24T12:25:04;2.67;;;1.15;;
32152;SDS011;18656;50.580;11.392;2022-12-24T12:27:38;3.30;;;1.40;;
32152;SDS011;18656;50.580;11.392;2022-12-24T12:30:09;3.17;;;1.27;;
32152;SDS011;18656;50.580;11.392;2022-12-24T12:32:44;3.15;;;2.15;;
32152;SDS011;18656;50.580;11.392;2022-12-24T12:35:23;3.70;;;1.13;;
32152;SDS011;18656;50.580;11.392;2022-12-24T12:37:53;2.88;;;0.90;;
32152;SDS011;18656;50.580;11.392;2022-12-24T12:40:20;1.75;;;0.60;;
32152;SDS011;18656;50.580;11.392;2022-12-24T12:43:03;5.18;;;0.80;;
32152;SDS011;18656;50.580;11.392;2022-12-24T12:45:53;2.92;;;0.75;;
32152;SDS011;18656;50.580;11.392;2022-12-24T12:50:56;3.95;;;1.02;;
32152;SDS011;18656;50.580;11.392;2022-12-24T12:56:22;2.10;;;0.95;;
32152;SDS011;18656;50.580;11.392;2022-12-24T12:58:55;2.45;;;0.90;;
32152;SDS011;18656;50.580;11.392;2022-12-24T13:01:25;2.35;;;0.73;;
32152;SDS011;18656;50.580;11.392;2022-12-24T13:06:55;1.65;;;0.70;;
32152;SDS011;18656;50.580;11.392;2022-12-24T13:09:34;3.60;;;0.80;;
32152;SDS011;18656;50.580;11.392;2022-12-24T13:17:39;5.10;;;1.45;;
32152;SDS011;18656;50.580;11.392;2022-12-24T13:20:25;5.55;;;1.05;;
32152;SDS011;18656;50.580;11.392;2022-12-24T13:25:26;4.00;;;1.40;;
32152;SDS011;18656;50.580;11.392;2022-12-24T13:27:54;5.68;;;1.20;;
32152;SDS011;18656;50.580;11.392;2022-12-24T13:30:32;8.30;;;1.85;;
32152;SDS011;18656;50.580;11.392;2022-12-24T13:32:59;5.07;;;1.60;;
32152;SDS011;18656;50.580;11.392;2022-12-24T13:35:28;9.00;;;2.17;;
32152;SDS011;18656;50.580;11.392;2022-12-24T13:40:49;9.68;;;1.92;;
32152;SDS011;18656;50.580;11.392;2022-12-24T13:43:16;5.60;;;1.48;;
32152;SDS011;18656;50.580;11.392;2022-12-24T13:45:47;6.53;;;2.08;;
32152;SDS011;18656;50.580;11.392;2022-12-24T13:50:54;7.95;;;1.48;;
32152;SDS011;18656;50.580;11.392;2022-12-24T13:53:32;8.15;;;1.40;;
32152;SDS011;18656;50.580;11.392;2022-12-24T13:56:09;8.43;;;1.75;;
32152;SDS011;18656;50.580;11.392;2022-12-24T13:58:46;7.05;;;1.55;;
32152;SDS011;18656;50.580;11.392;2022-12-24T14:01:21;9.52;;;2.15;;
32152;SDS011;18656;50.580;11.392;2022-12-24T14:03:59;10.57;;;2.70;;
32152;SDS011;18656;50.580;11.392;2022-12-24T14:06:29;7.68;;;1.80;;
32152;SDS011;18656;50.580;11.392;2022-12-24T14:09:04;8.82;;;2.17;;
32152;SDS011;18656;50.580;11.392;2022-12-24T14:14:26;6.80;;;2.00;;
32152;SDS011;18656;50.580;11.392;2022-12-24T14:16:54;9.65;;;2.85;;
32152;SDS011;18656;50.580;11.392;2022-12-24T14:19:37;9.68;;;2.40;;
32152;SDS011;18656;50.580;11.392;2022-12-24T14:22:18;13.05;;;2.90;;
32152;SDS011;18656;50.580;11.392;2022-12-24T14:25:12;14.97;;;2.43;;
32152;SDS011;18656;50.580;11.392;2022-12-24T14:27:38;8.70;;;2.33;;
32152;SDS011;18656;50.580;11.392;2022-12-24T14:32:35;7.75;;;2.08;;
32152;SDS011;18656;50.580;11.392;2022-12-24T14:35:06;13.50;;;2.65;;
32152;SDS011;18656;50.580;11.392;2022-12-24T14:37:34;9.13;;;2.05;;
32152;SDS011;18656;50.580;11.392;2022-12-24T14:40:02;10.77;;;1.50;;
32152;SDS011;18656;50.580;11.392;2022-12-24T14:42:33;11.15;;;2.10;;
32152;SDS011;18656;50.580;11.392;2022-12-24T14:45:21;12.13;;;2.00;;
32152;SDS011;18656;50.580;11.392;2022-12-24T14:47:58;9.32;;;2.10;;
32152;SDS011;18656;50.580;11.392;2022-12-24T14:51:14;9.55;;;2.88;;
32152;SDS011;18656;50.580;11.392;2022-12-24T14:53:32;10.65;;;3.20;;
32152;SDS011;18656;50.580;11.392;2022-12-24T14:56:13;8.82;;;2.53;;
32152;SDS011;18656;50.580;11.392;2022-12-24T14:58:41;12.13;;;2.70;;
32152;SDS011;18656;50.580;11.392;2022-12-24T15:01:24;8.52;;;2.35;;
32152;SDS011;18656;50.580;11.392;2022-12-24T15:06:19;12.13;;;4.25;;
32152;SDS011;18656;50.580;11.392;2022-12-24T15:08:47;10.95;;;4.13;;
32152;SDS011;18656;50.580;11.392;2022-12-24T15:11:16;11.95;;;4.40;;
32152;SDS011;18656;50.580;11.392;2022-12-24T15:13:45;16.45;;;4.85;;
32152;SDS011;18656;50.580;11.392;2022-12-24T15:16:17;11.82;;;3.92;;
32152;SDS011;18656;50.580;11.392;2022-12-24T15:21:57;6.88;;;3.35;;
32152;SDS011;18656;50.580;11.392;2022-12-24T15:24:23;15.63;;;5.80;;
32152;SDS011;18656;50.580;11.392;2022-12-24T15:26:51;18.63;;;5.78;;
32152;SDS011;18656;50.580;11.392;2022-12-24T15:29:22;11.70;;;5.07;;
32152;SDS011;18656;50.580;11.392;2022-12-24T15:31:54;12.15;;;5.93;;
32152;SDS011;18656;50.580;11.392;2022-12-24T15:37:02;17.08;;;5.53;;
32152;SDS011;18656;50.580;11.392;2022-12-24T15:39:30;16.45;;;4.75;;
32152;SDS011;18656;50.580;11.392;2022-12-24T15:41:57;11.10;;;4.32;;
32152;SDS011;18656;50.580;11.392;2022-12-24T15:44:46;13.13;;;5.20;;
32152;SDS011;18656;50.580;11.392;2022-12-24T15:47:18;15.07;;;6.00;;
32152;SDS011;18656;50.580;11.392;2022-12-24T15:49:46;18.15;;;10.80;;
32152;SDS011;18656;50.580;11.392;2022-12-24T15:52:15;22.85;;;9.90;;
32152;SDS011;18656;50.580;11.392;2022-12-24T15:54:44;17.15;;;9.32;;